Time;durP1;ratioP1;P1;durP2;ratioP2;P2;SDS_P1;SDS_P2;PMS_P1;PMS_P2;Temp;Humidity;BMP_temperature;BMP_pressure;BME280_temperature;BME280_humidity;BME280_pressure;Samples;Min_cycle;Max_cycle;Signal;HPM_P1;HPM_P2
2023/04/10 00:05:11;;;;;;;7.32;4.57;;;0.50;99.90;;;;;;20747922;28;20033;-51
2023/04/10 00:15:12;;;;;;;7.32;4.75;;;0.60;99.90;;;;;;20746777;28;20042;-48
2023/04/10 00:25:14;;;;;;;8.18;5.07;;;0.50;99.90;;;;;;20746018;28;20475;-46
2023/04/10 00:35:16;;;;;;;8.80;5.13;;;0.50;99.90;;;;;;20743250;28;20096;-46
2023/04/10 00:45:18;;;;;;;7.18;4.55;;;0.40;99.90;;;;;;20743234;28;20084;-50
2023/04/10 00:55:20;;;;;;;7.70;4.57;;;0.50;99.90;;;;;;20742649;28;20092;-49
2023/04/10 01:05:22;;;;;;;7.90;4.30;;;0.70;99.90;;;;;;20743347;28;20034;-46
2023/04/10 01:15:36;;;;;;;5.88;3.85;;;0.80;99.90;;;;;;20742193;28;20486;-57
2023/04/10 01:25:48;;;;;;;6.13;3.78;;;0.70;99.90;;;;;;20741547;28;20089;-48
2023/04/10 01:35:53;;;;;;;7.95;4.80;;;0.40;99.90;;;;;;20740205;28;20045;-51
2023/04/10 01:45:57;;;;;;;6.68;4.10;;;0.20;99.90;;;;;;20740141;28;20379;-49
2023/04/10 01:55:59;;;;;;;8.75;4.95;;;0.30;99.90;;;;;;20738594;28;20038;-46
2023/04/10 02:06:30;;;;;;;8.80;5.57;;;0.40;99.90;;;;;;20739600;28;20313;-47
2023/04/10 02:16:34;;;;;;;8.35;5.25;;;0.30;99.90;;;;;;20725775;28;20080;-58
2023/04/10 02:26:51;;;;;;;10.38;6.68;;;0.20;99.90;;;;;;20724023;28;20480;-49
2023/04/10 02:36:53;;;;;;;11.50;7.05;;;0.10;99.90;;;;;;20738590;28;20034;-47
2023/04/10 02:46:56;;;;;;;9.88;5.70;;;-0.20;99.90;;;;;;20738946;28;20038;-52
2023/04/10 02:56:58;;;;;;;6.80;4.20;;;-0.40;99.90;;;;;;20748508;28;20046;-58
2023/04/10 03:07:00;;;;;;;4.25;2.75;;;-0.60;99.90;;;;;;20749393;28;20033;-48
2023/04/10 03:17:02;;;;;;;3.78;2.40;;;-0.80;99.90;;;;;;20749427;28;20045;-49
2023/04/10 03:27:05;;;;;;;3.15;1.92;;;-1.00;99.90;;;;;;20748785;28;20060;-57
2023/04/10 03:37:08;;;;;;;3.40;1.77;;;-1.10;99.90;;;;;;20748560;28;20038;-48
2023/04/10 03:47:10;;;;;;;3.75;2.13;;;-1.10;99.90;;;;;;20747379;28;20041;-51
2023/04/10 03:57:12;;;;;;;3.90;2.30;;;-1.20;99.90;;;;;;20747915;28;20034;-49
2023/04/10 04:07:14;;;;;;;4.75;2.60;;;-1.40;99.90;;;;;;20747073;28;20030;-58
2023/04/10 04:17:49;;;;;;;4.28;2.70;;;-1.40;99.90;;;;;;20741041;28;20050;-46
2023/04/10 04:28:26;;;;;;;5.75;2.70;;;-1.60;99.90;;;;;;20728737;28;20115;-58
2023/04/10 04:38:54;;;;;;;5.70;2.60;;;-1.60;99.90;;;;;;20722792;28;20104;-48
2023/04/10 04:49:18;;;;;;;6.55;4.13;;;-1.50;99.90;;;;;;20716246;28;20096;-50
2023/04/10 04:59:29;;;;;;;5.25;3.20;;;-1.50;99.90;;;;;;20732150;28;20050;-49
2023/04/10 05:09:55;;;;;;;5.22;3.30;;;-1.40;99.90;;;;;;20741195;28;20030;-49
2023/04/10 05:20:12;;;;;;;3.88;2.10;;;-1.40;99.90;;;;;;20741262;28;20050;-58
2023/04/10 05:30:43;;;;;;;3.90;2.33;;;-1.30;99.90;;;;;;20736087;28;20092;-51
2023/04/10 05:41:03;;;;;;;3.20;1.70;;;-1.30;99.90;;;;;;20740489;28;20037;-47
2023/04/10 05:51:13;;;;;;;4.30;2.77;;;-1.00;99.90;;;;;;20740053;28;20092;-53
2023/04/10 06:01:53;;;;;;;5.27;2.93;;;-0.90;99.90;;;;;;20715184;28;20058;-49
2023/04/10 06:11:55;;;;;;;5.75;3.13;;;-0.70;99.90;;;;;;20686004;28;20045;-58
2023/04/10 06:21:58;;;;;;;6.10;3.35;;;-0.50;99.90;;;;;;20716777;28;20042;-59
2023/04/10 06:32:00;;;;;;;8.32;5.03;;;-0.20;99.90;;;;;;20746606;28;20042;-47
2023/04/10 06:42:04;;;;;;;6.45;4.28;;;0.10;99.90;;;;;;20751208;28;20038;-62
2023/04/10 06:52:31;;;;;;;5.90;4.10;;;1.50;99.90;;;;;;20735776;28;20568;-49
2023/04/10 07:02:33;;;;;;;6.43;4.60;;;3.40;99.90;;;;;;20752175;28;20026;-51
2023/04/10 07:12:34;;;;;;;6.15;4.80;;;3.80;99.90;;;;;;20751461;28;20045;-52
2023/04/10 07:22:36;;;;;;;9.43;5.28;;;4.30;99.90;;;;;;20750920;28;20038;-50
2023/04/10 07:32:38;;;;;;;6.93;5.43;;;5.80;99.90;;;;;;20747992;28;20038;-50
2023/04/10 07:42:40;;;;;;;7.72;5.18;;;7.10;99.90;;;;;;20748484;28;20367;-49
2023/04/10 07:52:41;;;;;;;7.07;5.80;;;8.10;99.90;;;;;;20746999;28;20030;-52
2023/04/10 08:02:43;;;;;;;7.00;5.55;;;8.60;99.90;;;;;;20747013;28;20430;-63
2023/04/10 08:12:44;;;;;;;6.32;5.45;;;9.00;99.90;;;;;;20745191;28;20049;-63
2023/04/10 08:22:46;;;;;;;5.90;5.00;;;9.10;99.90;;;;;;20738509;28;20545;-52
2023/04/10 08:32:48;;;;;;;8.13;5.78;;;8.70;99.90;;;;;;20734291;28;20088;-49
2023/04/10 08:42:49;;;;;;;6.47;5.05;;;8.60;99.90;;;;;;20744522;28;20025;-48
2023/04/10 08:52:54;;;;;;;6.15;4.85;;;8.70;99.90;;;;;;20741213;28;20434;-62
2023/04/10 09:02:57;;;;;;;6.28;5.50;;;9.30;99.90;;;;;;20739596;28;20084;-62
2023/04/10 09:12:58;;;;;;;6.32;5.20;;;8.80;99.90;;;;;;20741754;28;20541;-47
2023/04/10 09:23:01;;;;;;;6.82;4.93;;;8.80;99.90;;;;;;20741461;28;20037;-49
2023/04/10 09:33:19;;;;;;;7.38;5.47;;;8.90;99.90;;;;;;20740390;28;20072;-62
2023/04/10 09:43:23;;;;;;;8.52;5.35;;;8.80;99.90;;;;;;20740211;28;20084;-48
2023/04/10 09:53:24;;;;;;;6.05;4.97;;;8.50;99.90;;;;;;20738293;28;20439;-62
2023/04/10 10:03:26;;;;;;;6.07;4.90;;;9.40;99.90;;;;;;20737143;28;20030;-49
2023/04/10 10:13:36;;;;;;;8.13;5.28;;;9.70;99.90;;;;;;20738371;28;20045;-49
2023/04/10 10:23:41;;;;;;;6.33;4.87;;;10.30;99.90;;;;;;20738433;28;20034;-49
2023/04/10 10:33:43;;;;;;;6.22;5.15;;;10.20;99.90;;;;;;20737769;28;20045;-62
2023/04/10 10:44:07;;;;;;;5.25;4.47;;;10.20;99.90;;;;;;20737918;28;20037;-62
2023/04/10 10:54:47;;;;;;;6.88;4.82;;;9.40;99.90;;;;;;20737092;28;20053;-61
2023/04/10 11:04:49;;;;;;;7.43;4.95;;;9.10;99.90;;;;;;20564848;28;20464;-50
2023/04/10 11:15:03;;;;;;;5.47;4.40;;;11.10;99.90;;;;;;20572043;28;20511;-48
2023/04/10 11:25:09;;;;;;;5.10;4.25;;;12.20;99.90;;;;;;20579486;28;20039;-61
2023/04/10 11:35:11;;;;;;;5.05;3.95;;;12.10;99.90;;;;;;20719095;28;20407;-62
2023/04/10 11:45:26;;;;;;;6.25;4.28;;;12.10;99.90;;;;;;20749192;28;20045;-61
2023/04/10 11:55:37;;;;;;;6.05;4.50;;;11.70;99.90;;;;;;20748179;28;20034;-47
2023/04/10 12:05:46;;;;;;;4.78;4.20;;;12.00;99.90;;;;;;20748157;28;20041;-50
2023/04/10 12:15:48;;;;;;;5.60;4.35;;;13.00;99.90;;;;;;20746523;28;20050;-50
2023/04/10 12:25:50;;;;;;;5.55;4.75;;;13.30;99.90;;;;;;20745347;28;20107;-51
2023/04/10 12:35:53;;;;;;;8.23;5.30;;;13.20;99.90;;;;;;20745210;28;20034;-50
2023/04/10 12:45:54;;;;;;;5.55;4.95;;;14.20;99.90;;;;;;20744480;28;20392;-46
2023/04/10 12:55:59;;;;;;;7.03;5.45;;;14.50;99.90;;;;;;20743606;28;20092;-50
2023/04/10 13:06:01;;;;;;;6.10;4.90;;;14.90;99.90;;;;;;20739839;28;20040;-52
2023/04/10 13:16:03;;;;;;;7.30;5.80;;;14.30;98.70;;;;;;20740913;28;20376;-51
2023/04/10 13:26:05;;;;;;;6.32;5.28;;;14.30;99.20;;;;;;20740748;28;20104;-65
2023/04/10 13:36:07;;;;;;;6.13;5.05;;;14.60;97.40;;;;;;20740166;28;20087;-52
2023/04/10 13:46:08;;;;;;;6.65;5.50;;;14.80;98.10;;;;;;20739734;28;20403;-64
2023/04/10 13:56:10;;;;;;;5.32;4.57;;;14.30;98.50;;;;;;20733450;28;20434;-49
2023/04/10 14:06:13;;;;;;;6.43;4.80;;;13.90;97.60;;;;;;20732150;28;20077;-51
2023/04/10 14:16:15;;;;;;;6.97;5.40;;;13.50;97.10;;;;;;20738378;28;20157;-65
2023/04/10 14:26:16;;;;;;;5.78;4.82;;;13.30;96.20;;;;;;20737522;28;20042;-53
2023/04/10 14:36:18;;;;;;;5.68;4.68;;;13.10;97.10;;;;;;20737893;28;20034;-47
2023/04/10 14:46:20;;;;;;;5.93;4.47;;;12.50;98.30;;;;;;20740552;28;20065;-52
2023/04/10 14:56:21;;;;;;;6.05;4.97;;;12.30;97.00;;;;;;20753116;28;20042;-51
2023/04/10 15:06:23;;;;;;;5.38;4.65;;;11.70;97.10;;;;;;20752207;28;20034;-50
2023/04/10 15:16:25;;;;;;;6.38;5.18;;;11.20;98.00;;;;;;20751138;28;20080;-52
2023/04/10 15:26:27;;;;;;;6.75;4.55;;;10.40;97.70;;;;;;20741826;28;20034;-51
2023/04/10 15:36:28;;;;;;;5.68;4.70;;;9.80;99.10;;;;;;20750055;28;20447;-53
2023/04/10 15:46:31;;;;;;;6.03;4.82;;;9.30;99.70;;;;;;20749209;28;20041;-53
2023/04/10 15:56:33;;;;;;;7.30;4.78;;;8.90;99.90;;;;;;20748163;28;20030;-54
2023/04/10 16:06:34;;;;;;;6.40;5.20;;;8.50;99.90;;;;;;20745291;28;20038;-54
2023/04/10 16:16:36;;;;;;;7.72;5.25;;;7.90;99.90;;;;;;20747749;28;20068;-51
2023/04/10 16:26:37;;;;;;;8.63;6.05;;;7.30;99.90;;;;;;20746113;28;20041;-54
2023/04/10 16:36:39;;;;;;;7.60;5.40;;;6.70;99.90;;;;;;20748049;28;20026;-60
2023/04/10 16:46:40;;;;;;;11.02;6.00;;;6.40;99.90;;;;;;20742817;28;20033;-53
2023/04/10 16:56:42;;;;;;;7.25;5.30;;;6.30;99.90;;;;;;20744032;28;20030;-60
2023/04/10 17:06:44;;;;;;;9.02;5.78;;;6.20;99.90;;;;;;20743273;28;20105;-60
2023/04/10 17:16:46;;;;;;;11.27;6.40;;;6.00;99.90;;;;;;20741321;28;20041;-60
2023/04/10 17:26:48;;;;;;;8.27;5.90;;;5.70;99.90;;;;;;20741525;28;20044;-52
2023/04/10 17:36:50;;;;;;;8.48;6.30;;;5.20;99.90;;;;;;20739197;28;20038;-53
2023/04/10 17:46:53;;;;;;;8.05;6.18;;;5.00;99.90;;;;;;20740063;28;20034;-60
2023/04/10 17:56:55;;;;;;;8.88;6.63;;;4.60;99.90;;;;;;20740094;28;20061;-50
2023/04/10 18:06:57;;;;;;;9.60;6.35;;;4.30;99.90;;;;;;20739171;28;20430;-54
2023/04/10 18:16:58;;;;;;;15.90;9.18;;;4.10;99.90;;;;;;20738487;28;20046;-52
2023/04/10 18:27:00;;;;;;;12.00;7.97;;;3.90;99.90;;;;;;20759803;28;20060;-50
2023/04/10 18:37:02;;;;;;;11.52;7.28;;;3.80;99.90;;;;;;20762627;28;20110;-49
2023/04/10 18:47:04;;;;;;;11.13;7.28;;;3.80;99.90;;;;;;20766002;28;20034;-52
2023/04/10 18:57:06;;;;;;;8.32;5.93;;;3.60;99.90;;;;;;20764111;28;20038;-54
2023/04/10 19:07:08;;;;;;;9.27;6.38;;;3.50;99.90;;;;;;20762284;28;20037;-52
2023/04/10 19:17:09;;;;;;;9.20;6.50;;;3.40;99.90;;;;;;20761763;28;20553;-52
2023/04/10 19:27:11;;;;;;;9.73;6.50;;;3.30;99.90;;;;;;20763234;28;20557;-53
2023/04/10 19:37:13;;;;;;;12.32;7.30;;;3.20;99.90;;;;;;20752182;28;20041;-52
2023/04/10 19:47:16;;;;;;;9.98;6.78;;;3.10;99.90;;;;;;20749533;28;20038;-53
2023/04/10 19:57:18;;;;;;;10.77;7.25;;;2.90;99.90;;;;;;20748954;28;20092;-60
2023/04/10 20:07:19;;;;;;;10.48;7.00;;;3.00;99.90;;;;;;20748966;28;20541;-59
2023/04/10 20:17:21;;;;;;;10.65;7.25;;;3.10;99.90;;;;;;20746585;28;20076;-59
2023/04/10 20:27:23;;;;;;;10.68;7.20;;;2.90;99.90;;;;;;20746198;28;20395;-50
2023/04/10 20:37:25;;;;;;;10.50;6.85;;;2.90;99.90;;;;;;20745540;28;20041;-49
2023/04/10 20:47:28;;;;;;;11.70;7.40;;;2.70;99.90;;;;;;20743657;28;20549;-51
2023/04/10 20:57:29;;;;;;;10.65;7.47;;;2.60;99.90;;;;;;20743996;28;20037;-52
2023/04/10 21:07:31;;;;;;;11.20;7.32;;;2.60;99.90;;;;;;20743167;28;20034;-50
2023/04/10 21:17:33;;;;;;;16.27;6.80;;;2.70;99.90;;;;;;20742611;28;20129;-49
2023/04/10 21:27:35;;;;;;;10.60;6.88;;;2.80;99.90;;;;;;20741866;28;20038;-49
2023/04/10 21:37:36;;;;;;;10.75;7.10;;;3.00;99.90;;;;;;20741348;28;20037;-51
2023/04/10 21:47:38;;;;;;;10.95;6.75;;;3.00;99.90;;;;;;20739326;28;20038;-52
2023/04/10 21:57:39;;;;;;;9.20;6.68;;;3.10;99.90;;;;;;20739934;28;20079;-59
2023/04/10 22:07:41;;;;;;;9.95;6.35;;;3.10;99.90;;;;;;20739276;28;20092;-52
2023/04/10 22:17:43;;;;;;;10.00;6.32;;;2.90;99.90;;;;;;20737455;28;20065;-51
2023/04/10 22:27:45;;;;;;;9.25;6.22;;;2.80;99.90;;;;;;20738306;28;20034;-48
2023/04/10 22:37:46;;;;;;;8.80;6.28;;;2.70;99.90;;;;;;20738343;28;20037;-52
2023/04/10 22:47:48;;;;;;;8.85;5.93;;;2.90;99.90;;;;;;20739010;28;20026;-49
2023/04/10 22:57:49;;;;;;;8.55;5.40;;;3.20;99.90;;;;;;20737415;28;20041;-48
2023/04/10 23:07:51;;;;;;;10.02;6.18;;;3.30;99.90;;;;;;20739685;28;20041;-48
2023/04/10 23:17:52;;;;;;;10.70;6.55;;;3.30;99.90;;;;;;20752123;28;20046;-51
2023/04/10 23:27:54;;;;;;;7.72;4.97;;;3.20;99.90;;;;;;20751211;28;20375;-48
2023/04/10 23:37:56;;;;;;;8.80;5.80;;;3.20;99.90;;;;;;20750483;28;20406;-48
2023/04/10 23:47:58;;;;;;;10.77;6.00;;;3.10;99.90;;;;;;20749869;28;20172;-49
2023/04/10 23:58:00;;;;;;;9.45;6.40;;;2.90;99.90;;;;;;20749242;28;20033;-51
